Time;durP1;ratioP1;P1;durP2;ratioP2;P2;SDS_P1;SDS_P2;PMS_P1;PMS_P2;Temp;Humidity;BMP_temperature;BMP_pressure;BME280_temperature;BME280_humidity;BME280_pressure;Samples;Min_cycle;Max_cycle;Signal;HPM_P1;HPM_P2
2023/08/08 00:01:56;;;;;;;6.85;4.00;;;13.10;99.90;;;;;;5116786;27;20052;-66
2023/08/08 00:04:21;;;;;;;7.20;3.70;;;13.10;99.90;;;;;;5117095;27;20039;-66
2023/08/08 00:06:47;;;;;;;6.45;3.80;;;13.10;99.90;;;;;;5121166;27;20047;-65
2023/08/08 00:09:13;;;;;;;7.07;3.35;;;13.20;99.90;;;;;;5120303;27;20031;-66
2023/08/08 00:11:39;;;;;;;6.20;3.60;;;13.20;99.90;;;;;;5119282;27;20076;-65
2023/08/08 00:14:04;;;;;;;6.47;4.15;;;13.20;99.90;;;;;;5115732;27;20031;-66
2023/08/08 00:16:30;;;;;;;6.32;4.30;;;13.20;99.90;;;;;;5117828;27;20047;-66
2023/08/08 00:18:56;;;;;;;9.60;5.20;;;13.20;99.90;;;;;;5119247;27;20054;-66
2023/08/08 00:21:22;;;;;;;5.90;3.75;;;13.20;99.90;;;;;;5120618;27;20158;-66
2023/08/08 00:23:47;;;;;;;7.10;4.63;;;13.20;99.90;;;;;;5116603;27;21167;-65
2023/08/08 00:26:13;;;;;;;6.75;4.10;;;13.20;99.90;;;;;;5118125;27;20071;-64
2023/08/08 00:28:39;;;;;;;6.68;4.30;;;13.20;99.90;;;;;;5118989;27;20700;-67
2023/08/08 00:31:04;;;;;;;4.57;3.97;;;13.20;99.90;;;;;;5136580;27;20569;-66
2023/08/08 00:33:30;;;;;;;6.35;4.25;;;13.20;99.90;;;;;;5120328;27;20042;-66
2023/08/08 00:35:56;;;;;;;6.90;4.20;;;13.20;99.90;;;;;;5120536;27;20083;-64
2023/08/08 00:38:22;;;;;;;5.93;4.22;;;13.20;99.90;;;;;;5122849;27;20058;-66
2023/08/08 00:40:47;;;;;;;5.53;4.20;;;13.30;99.90;;;;;;5143683;27;20043;-65
2023/08/08 00:43:13;;;;;;;5.68;3.95;;;13.30;99.90;;;;;;5123556;27;20042;-65
2023/08/08 00:45:42;;;;;;;6.07;4.05;;;13.30;99.90;;;;;;5121985;27;20394;-66
2023/08/08 00:48:07;;;;;;;6.97;4.47;;;13.30;99.90;;;;;;5121516;27;20043;-67
2023/08/08 00:50:34;;;;;;;6.72;4.40;;;13.30;99.90;;;;;;5115644;27;20038;-66
2023/08/08 00:53:00;;;;;;;7.13;4.30;;;13.30;99.90;;;;;;5121780;27;20042;-66
2023/08/08 00:55:26;;;;;;;7.60;3.85;;;13.30;99.90;;;;;;5122760;27;20078;-66
2023/08/08 00:57:52;;;;;;;5.72;3.88;;;13.30;99.90;;;;;;5119896;27;20079;-67
2023/08/08 01:00:18;;;;;;;4.72;4.03;;;13.30;99.90;;;;;;5120415;27;20039;-66
2023/08/08 01:02:43;;;;;;;4.78;3.75;;;13.30;99.90;;;;;;5124214;27;20513;-65
2023/08/08 01:05:10;;;;;;;7.40;4.10;;;13.30;99.90;;;;;;5139564;27;20074;-66
2023/08/08 01:07:52;;;;;;;8.90;4.50;;;13.30;99.90;;;;;;5119986;27;20031;-67
2023/08/08 01:10:32;;;;;;;6.25;3.83;;;13.30;99.90;;;;;;5119135;27;20042;-65
2023/08/08 01:13:03;;;;;;;6.05;4.10;;;13.40;99.90;;;;;;5123037;27;20039;-64
2023/08/08 01:15:35;;;;;;;6.05;4.25;;;13.40;99.90;;;;;;5121797;27;20137;-66
2023/08/08 01:18:05;;;;;;;7.72;4.50;;;13.40;99.90;;;;;;5120326;27;20061;-66
2023/08/08 01:20:33;;;;;;;7.43;4.55;;;13.40;99.90;;;;;;5121132;27;20552;-66
2023/08/08 01:23:32;;;;;;;8.02;4.68;;;13.40;99.90;;;;;;5120512;27;20047;-67
2023/08/08 01:25:59;;;;;;;7.03;4.43;;;13.40;99.90;;;;;;5136770;27;20046;-65
2023/08/08 01:28:25;;;;;;;8.57;4.35;;;13.40;99.90;;;;;;5121716;27;20113;-66
2023/08/08 01:30:51;;;;;;;7.05;4.57;;;13.40;99.90;;;;;;5119597;28;20615;-65
2023/08/08 01:33:18;;;;;;;8.95;4.40;;;13.40;99.90;;;;;;5116890;28;20489;-66
2023/08/08 01:35:53;;;;;;;5.50;4.22;;;13.40;99.90;;;;;;5115798;28;20067;-67
2023/08/08 01:38:33;;;;;;;7.43;4.45;;;13.50;99.90;;;;;;5117132;27;20043;-67
2023/08/08 01:41:00;;;;;;;6.60;4.30;;;13.40;99.90;;;;;;5123670;27;20042;-66
2023/08/08 01:43:26;;;;;;;5.47;4.40;;;13.50;99.90;;;;;;5125826;27;20042;-66
2023/08/08 01:45:52;;;;;;;7.90;4.53;;;13.50;99.90;;;;;;5121438;27;20058;-66
2023/08/08 01:48:18;;;;;;;7.20;3.72;;;13.50;99.90;;;;;;5121504;27;20083;-66
2023/08/08 01:50:44;;;;;;;7.32;4.10;;;13.50;99.90;;;;;;5118592;27;20485;-67
2023/08/08 01:53:09;;;;;;;7.18;4.40;;;13.50;99.90;;;;;;5108024;27;20043;-67
2023/08/08 01:55:35;;;;;;;7.07;4.22;;;13.60;99.90;;;;;;5120846;27;20087;-66
2023/08/08 01:58:01;;;;;;;7.03;4.03;;;13.60;99.90;;;;;;5120308;27;20039;-66
2023/08/08 02:00:27;;;;;;;11.73;4.70;;;13.60;99.90;;;;;;5121590;27;20435;-66
2023/08/08 02:02:52;;;;;;;7.32;4.68;;;13.60;99.90;;;;;;5122213;27;20092;-66
2023/08/08 02:05:18;;;;;;;7.40;4.68;;;13.60;99.90;;;;;;5123065;27;20142;-65
2023/08/08 02:07:44;;;;;;;6.32;4.63;;;13.60;99.90;;;;;;5122385;27;20114;-65
2023/08/08 02:10:09;;;;;;;6.05;4.55;;;13.60;99.90;;;;;;5121296;27;20039;-64
2023/08/08 02:12:35;;;;;;;10.10;4.80;;;13.60;99.90;;;;;;5120163;27;20039;-65
2023/08/08 02:15:01;;;;;;;10.60;5.40;;;13.60;99.90;;;;;;5122578;27;20059;-65
2023/08/08 02:17:26;;;;;;;8.88;5.10;;;13.60;99.90;;;;;;5118591;27;20040;-67
2023/08/08 02:19:53;;;;;;;9.30;5.00;;;13.70;99.90;;;;;;5116944;27;20032;-66
2023/08/08 02:22:18;;;;;;;9.27;5.22;;;13.70;99.90;;;;;;5117266;27;20043;-66
2023/08/08 02:24:44;;;;;;;12.93;5.75;;;13.70;99.90;;;;;;5132244;27;20068;-66
2023/08/08 02:27:11;;;;;;;6.68;4.80;;;13.70;99.90;;;;;;5129604;27;20070;-67
2023/08/08 02:29:36;;;;;;;11.55;5.13;;;13.70;99.90;;;;;;5106943;27;20059;-65
2023/08/08 02:32:02;;;;;;;8.60;4.88;;;13.70;99.90;;;;;;5100129;28;20036;-65
2023/08/08 02:34:28;;;;;;;14.48;5.55;;;13.70;99.90;;;;;;5100353;28;20039;-66
2023/08/08 02:36:54;;;;;;;11.35;5.65;;;13.70;99.90;;;;;;5098849;28;20040;-66
2023/08/08 02:39:19;;;;;;;8.98;5.78;;;13.70;99.90;;;;;;5099470;28;20059;-65
2023/08/08 02:41:45;;;;;;;9.82;5.57;;;13.70;99.90;;;;;;5100204;28;20372;-67
2023/08/08 02:44:11;;;;;;;8.80;5.18;;;13.70;99.90;;;;;;5098900;28;20055;-65
2023/08/08 02:46:37;;;;;;;9.98;5.40;;;13.70;99.90;;;;;;5098087;28;20129;-67
2023/08/08 02:49:04;;;;;;;13.70;6.07;;;13.60;99.90;;;;;;5107759;28;20478;-66
2023/08/08 02:51:30;;;;;;;10.13;5.45;;;13.60;99.90;;;;;;5098975;28;20101;-66
2023/08/08 02:53:55;;;;;;;10.18;5.57;;;13.60;99.90;;;;;;5111246;28;20478;-65
2023/08/08 02:56:21;;;;;;;12.25;5.63;;;13.60;99.90;;;;;;5108764;28;20047;-67
2023/08/08 02:58:47;;;;;;;7.88;5.15;;;13.50;99.90;;;;;;5092194;28;20494;-67
2023/08/08 03:01:15;;;;;;;8.32;4.82;;;13.50;99.90;;;;;;5094514;28;20044;-66
2023/08/08 03:03:41;;;;;;;12.18;5.22;;;13.50;99.90;;;;;;5098146;28;20043;-66
2023/08/08 03:06:07;;;;;;;10.13;4.88;;;13.50;99.90;;;;;;5098171;28;20051;-67
2023/08/08 03:08:33;;;;;;;8.95;4.43;;;13.40;99.90;;;;;;5100750;28;20044;-65
2023/08/08 03:10:58;;;;;;;8.18;4.13;;;13.40;99.90;;;;;;5098582;28;20020;-65
2023/08/08 03:13:24;;;;;;;11.75;4.55;;;13.40;99.90;;;;;;5101020;28;20040;-65
2023/08/08 03:15:50;;;;;;;10.10;4.47;;;13.40;99.90;;;;;;5101095;28;20047;-66
2023/08/08 03:18:15;;;;;;;8.07;3.97;;;13.40;99.90;;;;;;5098278;28;20486;-65
2023/08/08 03:20:41;;;;;;;7.60;4.00;;;13.40;99.90;;;;;;5101310;28;20446;-65
2023/08/08 03:23:07;;;;;;;8.85;3.83;;;13.40;99.90;;;;;;5096011;28;20047;-65
2023/08/08 03:25:32;;;;;;;6.63;3.30;;;13.40;99.90;;;;;;5099290;28;20031;-67
2023/08/08 03:27:58;;;;;;;6.95;2.90;;;13.40;99.90;;;;;;5099193;28;20097;-66
2023/08/08 03:30:24;;;;;;;4.70;2.67;;;13.40;99.90;;;;;;5106838;27;20052;-65
2023/08/08 03:32:49;;;;;;;7.78;3.00;;;13.40;99.90;;;;;;5097182;28;20124;-65
2023/08/08 03:35:15;;;;;;;7.05;2.95;;;13.40;99.90;;;;;;5095209;27;20035;-66
2023/08/08 03:37:42;;;;;;;5.72;2.70;;;13.40;99.90;;;;;;5101627;27;20047;-66
2023/08/08 03:40:08;;;;;;;5.32;2.70;;;13.40;99.90;;;;;;5105259;27;20039;-67
2023/08/08 03:42:34;;;;;;;6.50;2.20;;;13.40;99.90;;;;;;5099515;28;20090;-68
2023/08/08 03:45:00;;;;;;;7.28;2.30;;;13.40;99.90;;;;;;5107256;28;20046;-67
2023/08/08 03:47:25;;;;;;;5.13;2.30;;;13.40;99.90;;;;;;5092901;28;20059;-66
2023/08/08 03:49:54;;;;;;;5.60;2.08;;;13.40;99.90;;;;;;5108225;28;20036;-66
2023/08/08 03:52:20;;;;;;;6.85;2.05;;;13.40;99.90;;;;;;5111100;28;20044;-64
2023/08/08 03:54:46;;;;;;;8.57;2.22;;;13.40;99.90;;;;;;5108992;28;20402;-65
2023/08/08 03:57:12;;;;;;;5.63;1.90;;;13.40;99.90;;;;;;5109948;28;20063;-65
2023/08/08 03:59:38;;;;;;;5.95;1.63;;;13.40;99.90;;;;;;5100722;27;20052;-67
2023/08/08 04:02:04;;;;;;;4.43;1.70;;;13.40;99.90;;;;;;5098572;27;20044;-66
2023/08/08 04:04:29;;;;;;;8.75;1.65;;;13.40;99.90;;;;;;5097029;27;20035;-66
2023/08/08 04:06:55;;;;;;;5.13;1.75;;;13.30;99.90;;;;;;5095125;27;20109;-66
2023/08/08 04:09:21;;;;;;;6.88;2.22;;;13.30;99.90;;;;;;5093095;27;20035;-65
2023/08/08 04:11:47;;;;;;;7.28;2.13;;;13.30;99.90;;;;;;5097554;27;20036;-66
2023/08/08 04:14:12;;;;;;;5.50;1.50;;;13.30;99.90;;;;;;5097153;27;20039;-66
2023/08/08 04:16:39;;;;;;;7.30;1.65;;;13.30;99.90;;;;;;5096085;27;20051;-66
2023/08/08 04:19:05;;;;;;;3.85;1.50;;;13.30;99.90;;;;;;5094015;28;20197;-67
2023/08/08 04:21:32;;;;;;;4.32;1.80;;;13.30;99.90;;;;;;5095903;28;20070;-67
2023/08/08 04:23:59;;;;;;;5.38;1.45;;;13.20;99.90;;;;;;5095072;27;20128;-65
2023/08/08 04:26:25;;;;;;;4.70;1.58;;;13.30;99.90;;;;;;5094720;28;20098;-66
2023/08/08 04:28:50;;;;;;;5.88;1.25;;;13.20;99.90;;;;;;5098497;27;20036;-65
2023/08/08 04:31:16;;;;;;;8.80;2.40;;;13.20;99.90;;;;;;5113262;27;20123;-65
2023/08/08 04:33:42;;;;;;;3.10;1.30;;;13.20;99.90;;;;;;5117553;27;20550;-65
2023/08/08 04:36:07;;;;;;;9.68;1.77;;;13.20;99.90;;;;;;5117163;27;20129;-66
2023/08/08 04:38:33;;;;;;;9.77;2.03;;;13.20;99.90;;;;;;5117747;27;20065;-66
2023/08/08 04:41:00;;;;;;;7.70;1.20;;;13.20;99.90;;;;;;5117378;27;20033;-66
2023/08/08 04:43:27;;;;;;;5.82;1.60;;;13.20;99.90;;;;;;5118635;27;20039;-64
2023/08/08 04:45:53;;;;;;;12.02;1.50;;;13.30;99.90;;;;;;5120460;27;20062;-66
2023/08/08 04:48:19;;;;;;;7.75;2.20;;;13.30;99.90;;;;;;5118660;27;20051;-65
2023/08/08 04:50:46;;;;;;;5.55;1.23;;;13.30;99.90;;;;;;5117256;27;20035;-65
2023/08/08 04:53:12;;;;;;;5.47;1.83;;;13.40;99.90;;;;;;5118276;27;20047;-66
2023/08/08 04:55:39;;;;;;;6.22;1.40;;;13.50;99.90;;;;;;5120033;27;20481;-66
2023/08/08 04:58:05;;;;;;;4.38;1.08;;;13.50;99.90;;;;;;5116695;27;20077;-65
2023/08/08 05:00:30;;;;;;;5.95;1.23;;;13.50;99.90;;;;;;5118429;27;20428;-65
2023/08/08 05:02:56;;;;;;;6.68;1.58;;;13.50;99.90;;;;;;5099042;27;20046;-65
2023/08/08 05:05:22;;;;;;;4.20;1.27;;;13.50;99.90;;;;;;5127327;27;20034;-66
2023/08/08 05:07:47;;;;;;;4.95;1.20;;;13.60;99.90;;;;;;5126972;27;20039;-66
2023/08/08 05:10:13;;;;;;;5.20;1.27;;;13.60;99.90;;;;;;5125829;27;20039;-65
2023/08/08 05:12:39;;;;;;;5.80;1.20;;;13.60;99.90;;;;;;5113705;28;20044;-65
2023/08/08 05:15:05;;;;;;;8.00;1.70;;;13.60;99.90;;;;;;5114890;27;20039;-65
2023/08/08 05:17:32;;;;;;;7.47;1.30;;;13.70;99.90;;;;;;5117678;27;20040;-66
2023/08/08 05:20:03;;;;;;;7.53;1.20;;;13.70;99.90;;;;;;5116419;27;20031;-65
2023/08/08 05:22:29;;;;;;;6.32;1.10;;;13.70;99.90;;;;;;5104291;27;20735;-64
2023/08/08 05:25:03;;;;;;;11.90;1.98;;;13.70;99.90;;;;;;5119955;27;20031;-65
2023/08/08 05:27:32;;;;;;;3.20;1.20;;;13.70;99.90;;;;;;5119560;27;20451;-66
2023/08/08 05:30:09;;;;;;;5.70;1.30;;;13.70;99.90;;;;;;5103611;27;20039;-66
2023/08/08 05:32:38;;;;;;;7.70;1.50;;;13.70;99.90;;;;;;5106375;27;20469;-66
2023/08/08 05:35:10;;;;;;;7.60;1.38;;;13.70;99.90;;;;;;5126431;27;20054;-65
2023/08/08 05:37:35;;;;;;;7.35;1.50;;;13.60;99.90;;;;;;5114288;27;20050;-67
2023/08/08 05:40:01;;;;;;;3.67;1.20;;;13.60;99.90;;;;;;5130032;27;20153;-65
2023/08/08 05:42:27;;;;;;;8.65;1.90;;;13.60;99.90;;;;;;5157919;27;20502;-65
2023/08/08 05:44:52;;;;;;;4.60;1.42;;;13.60;99.90;;;;;;5129976;27;20665;-65
2023/08/08 05:47:18;;;;;;;5.88;1.35;;;13.60;99.90;;;;;;5118784;27;20031;-65
2023/08/08 05:49:43;;;;;;;7.47;1.40;;;13.70;99.90;;;;;;5121535;27;20119;-66
2023/08/08 05:52:09;;;;;;;4.25;1.20;;;13.80;99.90;;;;;;5121558;27;20502;-65
2023/08/08 05:54:35;;;;;;;3.22;1.20;;;14.00;99.90;;;;;;5120055;27;20395;-64
2023/08/08 05:57:02;;;;;;;5.60;1.42;;;14.10;99.90;;;;;;5122585;27;20431;-64
2023/08/08 05:59:28;;;;;;;4.05;1.25;;;14.10;99.90;;;;;;5121750;27;20041;-64
2023/08/08 06:01:54;;;;;;;6.13;1.42;;;14.10;99.90;;;;;;5118345;27;20727;-66
2023/08/08 06:04:19;;;;;;;4.07;1.20;;;14.10;99.90;;;;;;5126221;27;20041;-64
2023/08/08 06:06:48;;;;;;;6.93;1.52;;;14.20;99.90;;;;;;5118802;27;20128;-65
2023/08/08 06:09:14;;;;;;;8.57;1.50;;;14.30;99.90;;;;;;5129875;27;20047;-65
2023/08/08 06:11:40;;;;;;;5.63;1.20;;;14.40;99.90;;;;;;5127733;27;20039;-65
2023/08/08 06:14:05;;;;;;;7.28;1.15;;;14.50;99.90;;;;;;5128272;27;20447;-64
2023/08/08 06:16:31;;;;;;;6.50;1.50;;;14.70;99.90;;;;;;5146209;27;20071;-64
2023/08/08 06:18:57;;;;;;;4.75;1.25;;;14.90;99.90;;;;;;5127776;27;20054;-65
2023/08/08 06:21:22;;;;;;;6.03;1.25;;;15.00;99.90;;;;;;5128284;27;20043;-67
2023/08/08 06:23:49;;;;;;;4.07;1.48;;;15.10;99.90;;;;;;5125990;27;20455;-65
2023/08/08 06:26:14;;;;;;;5.25;1.17;;;15.30;99.90;;;;;;5123896;27;20050;-65
2023/08/08 06:28:40;;;;;;;9.10;1.38;;;15.40;99.90;;;;;;5106736;27;20064;-65
2023/08/08 06:31:06;;;;;;;4.68;1.20;;;15.50;99.90;;;;;;5121072;27;20039;-64
2023/08/08 06:33:31;;;;;;;4.60;1.10;;;15.60;99.90;;;;;;5124111;27;20448;-66
2023/08/08 06:35:57;;;;;;;6.78;1.20;;;15.70;99.90;;;;;;5124655;27;20051;-65
2023/08/08 06:38:22;;;;;;;4.63;1.02;;;15.80;99.90;;;;;;5125585;27;20072;-66
2023/08/08 06:40:49;;;;;;;5.10;1.17;;;15.90;99.90;;;;;;5123837;27;20080;-65
2023/08/08 06:43:14;;;;;;;4.30;1.00;;;16.00;99.90;;;;;;5121066;27;20529;-66
2023/08/08 06:45:40;;;;;;;5.55;1.58;;;16.10;99.90;;;;;;5126236;27;20047;-65
2023/08/08 06:48:06;;;;;;;6.38;0.90;;;16.10;99.90;;;;;;5123243;27;20047;-64
2023/08/08 06:50:31;;;;;;;5.57;1.02;;;16.10;99.90;;;;;;5122764;27;20083;-65
2023/08/08 06:52:57;;;;;;;6.65;1.00;;;16.20;99.90;;;;;;5107380;27;20043;-65
2023/08/08 06:55:24;;;;;;;6.68;1.10;;;16.30;99.90;;;;;;5123944;27;20042;-65
2023/08/08 06:57:49;;;;;;;5.50;0.93;;;16.40;99.90;;;;;;5124967;27;20043;-68
2023/08/08 07:00:16;;;;;;;4.88;1.05;;;16.40;99.90;;;;;;5123142;27;20066;-67
2023/08/08 07:02:41;;;;;;;6.53;1.27;;;16.40;99.90;;;;;;5124504;27;20074;-67
2023/08/08 07:05:09;;;;;;;5.40;1.38;;;16.60;99.90;;;;;;5123500;27;20541;-67
2023/08/08 07:07:35;;;;;;;3.83;1.20;;;16.70;99.90;;;;;;5124782;27;20031;-68
2023/08/08 07:10:01;;;;;;;6.15;1.23;;;16.70;99.90;;;;;;5106547;27;20042;-65
2023/08/08 07:12:26;;;;;;;4.55;1.10;;;16.70;99.90;;;;;;5124031;27;20078;-64
2023/08/08 07:14:52;;;;;;;4.80;1.08;;;16.80;99.90;;;;;;5123467;27;20074;-64
2023/08/08 07:17:17;;;;;;;3.97;0.90;;;16.90;99.90;;;;;;5124244;27;20041;-65
2023/08/08 07:19:43;;;;;;;6.25;1.38;;;16.90;99.90;;;;;;5122783;27;20572;-66
2023/08/08 07:22:09;;;;;;;6.53;1.20;;;17.00;99.90;;;;;;5121486;27;20106;-66
2023/08/08 07:24:34;;;;;;;6.50;1.00;;;17.00;99.90;;;;;;5122389;27;20047;-67
2023/08/08 07:27:00;;;;;;;5.40;0.90;;;17.00;99.90;;;;;;5119926;27;20497;-65
2023/08/08 07:29:26;;;;;;;3.33;0.90;;;17.10;99.90;;;;;;5121451;27;20047;-66
2023/08/08 07:31:53;;;;;;;5.20;1.02;;;17.20;99.90;;;;;;5104766;27;20038;-64
2023/08/08 07:34:19;;;;;;;2.78;0.93;;;17.20;99.90;;;;;;5121185;27;20058;-66
2023/08/08 07:36:45;;;;;;;4.15;1.00;;;17.20;99.90;;;;;;5122929;27;20044;-66
2023/08/08 07:39:11;;;;;;;3.85;1.00;;;17.20;99.90;;;;;;5122297;27;20034;-67
2023/08/08 07:41:38;;;;;;;4.18;1.00;;;17.40;99.90;;;;;;5114029;27;20054;-65
2023/08/08 07:44:04;;;;;;;7.78;1.00;;;17.60;99.90;;;;;;5114169;27;20155;-67
2023/08/08 07:46:30;;;;;;;4.95;1.02;;;17.50;99.90;;;;;;5114161;27;20051;-67
2023/08/08 07:48:59;;;;;;;3.75;0.90;;;17.30;99.90;;;;;;5098791;27;20511;-66
2023/08/08 07:51:25;;;;;;;5.15;0.90;;;17.10;99.90;;;;;;5119824;27;20035;-67
2023/08/08 07:53:51;;;;;;;7.65;1.23;;;17.00;99.90;;;;;;5114669;27;20435;-66
2023/08/08 07:56:16;;;;;;;5.75;0.90;;;16.80;99.90;;;;;;5114877;27;20043;-66
2023/08/08 07:58:45;;;;;;;3.22;0.70;;;16.70;99.90;;;;;;5136722;27;20035;-67
2023/08/08 08:01:11;;;;;;;3.47;1.10;;;16.70;99.90;;;;;;5100957;27;20102;-68
2023/08/08 08:03:37;;;;;;;3.67;0.77;;;16.60;99.90;;;;;;5133666;27;20106;-68
2023/08/08 08:06:03;;;;;;;4.32;0.90;;;16.60;99.90;;;;;;5115833;27;20043;-66
2023/08/08 08:08:28;;;;;;;3.80;0.88;;;16.60;99.90;;;;;;5132321;27;20023;-67
2023/08/08 08:10:54;;;;;;;3.85;0.82;;;16.50;99.90;;;;;;5113863;27;20114;-68
2023/08/08 08:13:20;;;;;;;6.13;1.23;;;16.50;99.90;;;;;;5114574;27;20035;-66
2023/08/08 08:15:45;;;;;;;9.15;1.20;;;16.50;99.90;;;;;;5113810;27;20545;-65
2023/08/08 08:18:12;;;;;;;3.97;1.20;;;16.60;99.90;;;;;;5113570;27;20070;-65
2023/08/08 08:20:39;;;;;;;5.20;0.90;;;16.60;99.90;;;;;;5114507;27;20114;-65
2023/08/08 08:23:04;;;;;;;4.90;1.30;;;16.70;99.90;;;;;;5115053;27;20043;-65
2023/08/08 08:25:31;;;;;;;4.68;0.80;;;16.80;99.90;;;;;;5113653;27;20050;-66
2023/08/08 08:27:57;;;;;;;7.82;1.40;;;16.90;99.90;;;;;;5115025;27;20049;-65
2023/08/08 08:30:26;;;;;;;5.63;1.00;;;16.90;99.90;;;;;;5113093;27;20039;-68
2023/08/08 08:32:52;;;;;;;3.67;1.10;;;16.90;99.90;;;;;;5113381;27;20382;-64
2023/08/08 08:35:18;;;;;;;4.25;0.80;;;17.00;99.90;;;;;;5113111;27;20043;-64
2023/08/08 08:37:44;;;;;;;3.40;1.10;;;17.00;99.90;;;;;;5130887;27;20047;-64
2023/08/08 08:40:10;;;;;;;5.40;1.00;;;17.00;99.90;;;;;;5117396;27;20043;-63
2023/08/08 08:42:37;;;;;;;3.22;1.02;;;17.00;99.90;;;;;;5104111;27;20050;-62
2023/08/08 08:45:04;;;;;;;5.95;1.20;;;17.10;99.90;;;;;;5124966;27;20113;-62
2023/08/08 08:47:31;;;;;;;4.50;1.00;;;17.20;99.90;;;;;;5120865;27;20089;-63
2023/08/08 08:49:58;;;;;;;3.60;0.80;;;17.20;99.90;;;;;;5121127;27;20027;-64
2023/08/08 08:52:23;;;;;;;3.08;0.80;;;17.20;99.90;;;;;;5122502;27;20043;-63
2023/08/08 08:54:51;;;;;;;4.38;1.38;;;17.10;99.90;;;;;;5121983;27;20113;-63
2023/08/08 08:57:17;;;;;;;5.80;1.90;;;17.00;99.90;;;;;;5123089;27;20035;-63
2023/08/08 08:59:43;;;;;;;3.83;1.10;;;16.90;99.90;;;;;;5123358;27;20398;-63
2023/08/08 09:02:10;;;;;;;5.20;1.10;;;16.90;99.90;;;;;;5120856;27;20402;-61
2023/08/08 09:04:37;;;;;;;3.72;0.70;;;16.80;99.90;;;;;;5123871;27;20474;-62
2023/08/08 09:07:06;;;;;;;2.70;0.80;;;16.90;99.90;;;;;;5119782;27;20047;-62
2023/08/08 09:09:32;;;;;;;4.20;0.93;;;16.90;99.90;;;;;;5122266;27;20051;-61
2023/08/08 09:11:58;;;;;;;4.78;1.00;;;17.00;99.90;;;;;;5144916;27;20038;-63
2023/08/08 09:14:26;;;;;;;3.40;0.90;;;17.00;99.90;;;;;;5122777;27;20039;-62
2023/08/08 09:16:53;;;;;;;3.42;0.82;;;16.90;99.90;;;;;;5124184;27;20039;-61
2023/08/08 09:19:20;;;;;;;3.88;0.80;;;16.80;99.90;;;;;;5119259;27;20047;-63
2023/08/08 09:21:46;;;;;;;3.63;0.80;;;16.70;99.90;;;;;;5119123;27;20047;-62
2023/08/08 09:24:12;;;;;;;3.42;0.95;;;16.60;99.90;;;;;;5119970;27;20501;-62
2023/08/08 09:26:42;;;;;;;3.75;0.75;;;16.60;99.90;;;;;;5118219;27;20053;-63
2023/08/08 09:29:09;;;;;;;5.32;1.02;;;16.60;99.90;;;;;;5139815;27;20114;-63
2023/08/08 09:31:35;;;;;;;3.80;0.93;;;16.80;99.90;;;;;;5122181;27;20051;-66
2023/08/08 09:34:02;;;;;;;1.42;0.82;;;17.20;99.90;;;;;;5123741;27;20405;-66
2023/08/08 09:36:28;;;;;;;3.20;0.93;;;17.50;99.90;;;;;;5121105;27;20088;-66
2023/08/08 09:38:55;;;;;;;3.10;0.65;;;17.60;99.90;;;;;;5120834;27;20039;-66
2023/08/08 09:41:24;;;;;;;3.15;1.05;;;17.50;99.90;;;;;;5121016;27;20055;-68
2023/08/08 09:43:52;;;;;;;6.03;0.82;;;17.30;99.90;;;;;;5114349;27;20046;-65
2023/08/08 09:46:19;;;;;;;5.55;1.20;;;17.20;99.90;;;;;;5112459;28;20437;-66
2023/08/08 09:48:45;;;;;;;1.63;0.70;;;17.20;99.90;;;;;;5112377;27;20035;-62
2023/08/08 09:51:11;;;;;;;4.85;0.73;;;16.90;99.90;;;;;;5129697;27;20112;-64
2023/08/08 09:53:38;;;;;;;4.93;0.90;;;16.60;99.90;;;;;;5133026;27;20039;-66
2023/08/08 09:56:04;;;;;;;2.08;0.85;;;16.30;99.90;;;;;;5151506;27;20039;-64
2023/08/08 09:58:30;;;;;;;3.78;1.05;;;16.00;99.90;;;;;;5151332;27;20226;-64
2023/08/08 10:00:56;;;;;;;3.17;0.80;;;16.10;99.90;;;;;;5135779;27;20031;-64
2023/08/08 10:03:22;;;;;;;3.60;1.00;;;16.30;99.90;;;;;;5136822;27;20031;-64
2023/08/08 10:05:48;;;;;;;7.25;1.08;;;16.60;99.90;;;;;;5122680;27;20058;-65
2023/08/08 10:08:18;;;;;;;4.55;1.00;;;16.90;99.90;;;;;;5116139;27;20035;-64
2023/08/08 10:10:47;;;;;;;3.78;0.98;;;16.90;99.90;;;;;;5116337;27;20046;-65
2023/08/08 10:13:23;;;;;;;3.42;1.10;;;17.00;99.90;;;;;;5116350;27;20474;-64
2023/08/08 10:15:49;;;;;;;6.20;1.00;;;17.20;99.90;;;;;;5116052;27;20039;-66
2023/08/08 10:18:15;;;;;;;4.55;1.00;;;17.40;99.90;;;;;;5116122;27;20110;-65
2023/08/08 10:20:49;;;;;;;7.05;0.88;;;17.60;99.90;;;;;;5122598;27;20485;-65
2023/08/08 10:23:16;;;;;;;4.57;1.00;;;17.60;99.90;;;;;;5129452;27;20091;-65
2023/08/08 10:25:46;;;;;;;5.05;0.80;;;17.50;99.90;;;;;;5136028;27;20084;-66
2023/08/08 10:28:14;;;;;;;3.88;0.93;;;17.30;99.90;;;;;;5147462;27;20069;-64
2023/08/08 10:30:48;;;;;;;3.47;0.80;;;17.10;99.90;;;;;;5154861;27;20037;-64
2023/08/08 10:33:24;;;;;;;3.90;0.90;;;17.00;99.90;;;;;;5131055;27;20051;-66
2023/08/08 10:36:00;;;;;;;3.08;1.20;;;16.80;99.90;;;;;;5115979;27;20118;-65
2023/08/08 10:38:27;;;;;;;4.38;1.38;;;16.60;99.90;;;;;;5122829;27;20023;-65
2023/08/08 10:40:57;;;;;;;5.68;1.20;;;16.40;99.90;;;;;;5115448;27;20035;-64
2023/08/08 10:43:30;;;;;;;4.07;1.23;;;16.40;99.90;;;;;;5098531;27;20035;-65
2023/08/08 10:46:01;;;;;;;5.13;1.20;;;16.30;99.90;;;;;;5115254;27;20051;-67
2023/08/08 10:48:27;;;;;;;2.83;1.00;;;16.30;99.90;;;;;;5101130;27;20043;-63
2023/08/08 10:51:00;;;;;;;4.68;1.38;;;16.20;99.90;;;;;;5135364;27;20039;-64
2023/08/08 10:53:29;;;;;;;4.45;0.93;;;16.20;99.90;;;;;;5135528;27;20508;-64
2023/08/08 10:56:00;;;;;;;5.18;1.50;;;16.20;99.90;;;;;;5115358;27;20095;-64
2023/08/08 10:58:42;;;;;;;7.10;1.35;;;16.30;99.90;;;;;;5115118;27;20112;-64
2023/08/08 11:01:09;;;;;;;3.92;1.20;;;16.30;99.90;;;;;;5114880;27;20035;-64
2023/08/08 11:03:39;;;;;;;2.53;0.88;;;16.40;99.90;;;;;;5097867;27;20057;-66
2023/08/08 11:06:09;;;;;;;4.43;0.95;;;16.40;99.90;;;;;;5115029;27;20049;-65
2023/08/08 11:08:37;;;;;;;4.70;0.90;;;16.50;99.90;;;;;;5114981;27;20470;-65
2023/08/08 11:11:04;;;;;;;4.47;1.20;;;16.80;99.90;;;;;;5114314;28;20066;-65
2023/08/08 11:13:30;;;;;;;2.97;1.05;;;17.30;99.90;;;;;;5114609;27;20042;-65
2023/08/08 11:15:56;;;;;;;5.50;0.98;;;17.60;99.90;;;;;;5146476;27;20038;-65
2023/08/08 11:18:22;;;;;;;3.63;1.00;;;17.60;99.90;;;;;;5135151;27;20481;-64
2023/08/08 11:20:49;;;;;;;5.35;1.23;;;17.60;99.90;;;;;;5125228;27;20114;-65
2023/08/08 11:23:15;;;;;;;5.00;1.10;;;17.40;99.90;;;;;;5125607;27;20039;-66
2023/08/08 11:25:42;;;;;;;4.78;1.10;;;17.50;99.90;;;;;;5135047;27;20047;-64
2023/08/08 11:28:09;;;;;;;4.30;1.20;;;17.40;99.90;;;;;;5135143;27;20039;-65
2023/08/08 11:30:41;;;;;;;5.40;1.15;;;17.30;99.90;;;;;;5114410;27;20035;-64
2023/08/08 11:33:07;;;;;;;;;;;17.20;99.90;;;;;;5114928;27;20078;-66
2023/08/08 11:35:34;;;;;;;3.42;1.77;;;17.00;99.90;;;;;;5114287;27;19978;-65
2023/08/08 11:38:00;;;;;;;3.33;1.23;;;16.90;99.90;;;;;;5125396;27;20055;-65
2023/08/08 11:40:29;;;;;;;5.28;1.20;;;16.80;99.90;;;;;;5134713;27;20508;-66
2023/08/08 11:42:56;;;;;;;3.25;1.00;;;16.80;99.90;;;;;;5134967;27;20046;-64
2023/08/08 11:45:22;;;;;;;2.67;0.90;;;16.70;99.90;;;;;;5114893;27;20043;-65
2023/08/08 11:47:55;;;;;;;3.67;1.30;;;16.80;99.90;;;;;;5114164;27;20042;-64
2023/08/08 11:50:27;;;;;;;4.32;1.27;;;17.00;99.90;;;;;;5114261;27;20035;-65
2023/08/08 11:52:54;;;;;;;4.35;1.33;;;17.20;99.90;;;;;;5114939;27;20114;-63
2023/08/08 11:55:23;;;;;;;6.55;1.20;;;17.40;99.90;;;;;;5152956;27;20034;-66
2023/08/08 11:57:50;;;;;;;2.83;1.05;;;17.40;99.90;;;;;;5132174;27;20038;-65
2023/08/08 12:00:16;;;;;;;2.65;1.10;;;17.30;99.90;;;;;;5131641;27;20053;-65
2023/08/08 12:02:45;;;;;;;3.28;0.82;;;17.30;99.90;;;;;;5152780;27;20416;-65
2023/08/08 12:05:13;;;;;;;5.55;0.95;;;17.20;99.90;;;;;;5116820;27;20066;-65
2023/08/08 12:07:41;;;;;;;4.57;0.90;;;17.20;99.90;;;;;;5113556;27;20039;-66
2023/08/08 12:10:18;;;;;;;5.60;1.10;;;17.20;99.90;;;;;;5113853;27;20035;-64
2023/08/08 12:12:53;;;;;;;2.22;0.88;;;17.00;99.90;;;;;;5133540;27;20050;-65
2023/08/08 12:15:20;;;;;;;4.78;0.80;;;17.10;99.90;;;;;;5127762;27;20524;-66
2023/08/08 12:17:46;;;;;;;7.50;1.10;;;17.10;99.90;;;;;;5134017;27;20059;-66
2023/08/08 12:20:11;;;;;;;3.50;0.93;;;17.00;99.90;;;;;;5132506;27;20027;-64
2023/08/08 12:22:37;;;;;;;5.30;1.00;;;17.00;99.90;;;;;;5128246;27;20437;-64
2023/08/08 12:25:03;;;;;;;3.05;1.08;;;17.00;99.90;;;;;;5113520;27;20405;-65
2023/08/08 12:27:30;;;;;;;7.15;1.40;;;16.90;99.90;;;;;;5113547;27;20039;-64
2023/08/08 12:29:56;;;;;;;5.55;1.00;;;16.80;99.90;;;;;;5113394;27;20035;-65
2023/08/08 12:32:23;;;;;;;4.18;1.00;;;16.80;99.90;;;;;;5109756;28;20055;-65
2023/08/08 12:34:49;;;;;;;3.25;0.98;;;16.70;99.90;;;;;;5130194;27;20031;-65
2023/08/08 12:37:15;;;;;;;3.90;1.02;;;16.70;99.90;;;;;;5130701;27;20489;-66
2023/08/08 12:39:41;;;;;;;4.30;1.23;;;16.60;99.90;;;;;;5130356;27;20112;-64
2023/08/08 12:42:07;;;;;;;4.00;1.10;;;16.60;99.90;;;;;;5130318;27;20171;-66
2023/08/08 12:44:32;;;;;;;5.47;1.00;;;16.50;99.90;;;;;;5113131;27;20053;-64